CheckWX is a tool to help pilots better visualize weather data.  It is not intended as a substitute for an official pre-flight weather briefing.

17:30:57 UTC

WMKN TAF
Sultan Mahmud Airport
Kuala Terengganu, Malaysia
TAF AMD WMKN 181259Z 1812/1912 23005KT 9999 SCT018 BKN150 TEMPO 1812/1816 4000 TSRA FEW010 FEW017CB BECMG 1900/1902 FEW018 SCT150 BKN300

Jun-18@
12:00 UTC

Jun-18 @ 12:00 UTC

Jun-19@
00:00 UTC

Jun-19 @ 00:00 UTC

TAF AMD WMKN 181259Z 1812/1912 23005KT 9999 SCT018 BKN150
Wind
  • 230° at 5 KTS
Cloud Levels
  • Scattered at 1,800' AGL
  • Broken at 15,000' AGL

Jun-18@
12:00 UTC

Jun-18 @ 12:00 UTC

Jun-18@
16:00 UTC

Jun-18 @ 16:00 UTC

TEMPO 1812/1816 4000 TSRA FEW010 FEW017CB

Expired

Conditions
Thunderstorm, Rain
Cloud Levels
  • Few at 1,000' AGL
  • Few at 1,700' AGL

Jun-19@
00:00 UTC

Jun-19 @ 00:00 UTC

Jun-19@
12:00 UTC

Jun-19 @ 12:00 UTC

BECMG 1900/1902 FEW018 SCT150 BKN300

Becoming

Becoming Conditions expected by Wed, Jun 19, 2019 @ 02:00 UTC

Wind
  • 230° at 5 KTS
Cloud Levels
  • Few at 1,800' AGL
  • Scattered at 15,000' AGL
  • Broken at 30,000' AGL